sensor_id;sensor_type;location;lat;lon;timestamp;P1;durP1;ratioP1;P2;durP2;ratioP2
43696;SDS011;29301;47.620;19.560;2022-08-26T00:01:15;13.95;;;5.38;;
43696;SDS011;29301;47.620;19.560;2022-08-26T00:03:42;12.50;;;5.82;;
43696;SDS011;29301;47.620;19.560;2022-08-26T00:06:08;14.48;;;5.97;;
43696;SDS011;29301;47.620;19.560;2022-08-26T00:08:34;12.75;;;5.60;;
43696;SDS011;29301;47.620;19.560;2022-08-26T00:11:00;11.45;;;5.05;;
43696;SDS011;29301;47.620;19.560;2022-08-26T00:13:27;13.02;;;5.88;;
43696;SDS011;29301;47.620;19.560;2022-08-26T00:15:53;13.82;;;5.55;;
43696;SDS011;29301;47.620;19.560;2022-08-26T00:18:19;13.38;;;6.22;;
43696;SDS011;29301;47.620;19.560;2022-08-26T00:20:45;17.48;;;6.03;;
43696;SDS011;29301;47.620;19.560;2022-08-26T00:23:11;10.93;;;4.88;;
43696;SDS011;29301;47.620;19.560;2022-08-26T00:25:36;13.07;;;6.00;;
43696;SDS011;29301;47.620;19.560;2022-08-26T00:28:03;13.52;;;5.35;;
43696;SDS011;29301;47.620;19.560;2022-08-26T00:32:55;13.35;;;5.00;;
43696;SDS011;29301;47.620;19.560;2022-08-26T00:35:23;10.55;;;5.00;;
43696;SDS011;29301;47.620;19.560;2022-08-26T00:37:50;12.50;;;5.82;;
43696;SDS011;29301;47.620;19.560;2022-08-26T00:40:21;13.15;;;5.78;;
43696;SDS011;29301;47.620;19.560;2022-08-26T00:42:49;11.07;;;4.72;;
43696;SDS011;29301;47.620;19.560;2022-08-26T00:45:15;16.60;;;6.25;;
43696;SDS011;29301;47.620;19.560;2022-08-26T00:47:44;8.68;;;5.25;;
43696;SDS011;29301;47.620;19.560;2022-08-26T00:50:22;13.93;;;5.47;;
43696;SDS011;29301;47.620;19.560;2022-08-26T00:52:51;8.90;;;5.25;;
43696;SDS011;29301;47.620;19.560;2022-08-26T00:55:20;13.40;;;5.72;;
43696;SDS011;29301;47.620;19.560;2022-08-26T00:57:51;14.45;;;5.32;;
43696;SDS011;29301;47.620;19.560;2022-08-26T01:00:20;17.45;;;6.35;;
43696;SDS011;29301;47.620;19.560;2022-08-26T01:02:49;13.68;;;5.68;;
43696;SDS011;29301;47.620;19.560;2022-08-26T01:05:15;12.45;;;5.57;;
43696;SDS011;29301;47.620;19.560;2022-08-26T01:07:42;15.15;;;6.28;;
43696;SDS011;29301;47.620;19.560;2022-08-26T01:10:09;9.45;;;5.13;;
43696;SDS011;29301;47.620;19.560;2022-08-26T01:12:49;16.98;;;5.40;;
43696;SDS011;29301;47.620;19.560;2022-08-26T01:15:19;11.98;;;5.05;;
43696;SDS011;29301;47.620;19.560;2022-08-26T01:17:48;11.50;;;6.53;;
43696;SDS011;29301;47.620;19.560;2022-08-26T01:20:22;32.47;;;21.63;;
43696;SDS011;29301;47.620;19.560;2022-08-26T01:22:56;39.38;;;27.25;;
43696;SDS011;29301;47.620;19.560;2022-08-26T01:25:28;50.95;;;37.10;;
43696;SDS011;29301;47.620;19.560;2022-08-26T01:27:55;51.13;;;41.20;;
43696;SDS011;29301;47.620;19.560;2022-08-26T01:30:23;52.55;;;42.72;;
43696;SDS011;29301;47.620;19.560;2022-08-26T01:32:51;40.00;;;31.63;;
43696;SDS011;29301;47.620;19.560;2022-08-26T01:35:19;38.50;;;28.52;;
43696;SDS011;29301;47.620;19.560;2022-08-26T01:37:45;31.27;;;22.77;;
43696;SDS011;29301;47.620;19.560;2022-08-26T01:40:16;27.10;;;18.90;;
43696;SDS011;29301;47.620;19.560;2022-08-26T01:42:44;26.05;;;15.52;;
43696;SDS011;29301;47.620;19.560;2022-08-26T01:45:14;18.20;;;14.25;;
43696;SDS011;29301;47.620;19.560;2022-08-26T01:47:43;18.08;;;13.30;;
43696;SDS011;29301;47.620;19.560;2022-08-26T01:50:14;18.15;;;11.23;;
43696;SDS011;29301;47.620;19.560;2022-08-26T01:52:43;17.58;;;9.70;;
43696;SDS011;29301;47.620;19.560;2022-08-26T01:55:11;16.95;;;8.50;;
43696;SDS011;29301;47.620;19.560;2022-08-26T01:57:39;13.18;;;7.65;;
43696;SDS011;29301;47.620;19.560;2022-08-26T02:00:08;12.25;;;6.82;;
43696;SDS011;29301;47.620;19.560;2022-08-26T02:02:42;15.45;;;7.22;;
43696;SDS011;29301;47.620;19.560;2022-08-26T02:05:16;22.42;;;6.38;;
43696;SDS011;29301;47.620;19.560;2022-08-26T02:07:44;14.00;;;7.13;;
43696;SDS011;29301;47.620;19.560;2022-08-26T02:10:12;14.48;;;7.15;;
43696;SDS011;29301;47.620;19.560;2022-08-26T02:12:39;9.18;;;6.05;;
43696;SDS011;29301;47.620;19.560;2022-08-26T02:15:06;15.93;;;7.18;;
43696;SDS011;29301;47.620;19.560;2022-08-26T02:17:44;10.63;;;6.30;;
43696;SDS011;29301;47.620;19.560;2022-08-26T02:20:12;9.65;;;6.70;;
43696;SDS011;29301;47.620;19.560;2022-08-26T02:22:41;11.30;;;6.03;;
43696;SDS011;29301;47.620;19.560;2022-08-26T02:27:54;12.25;;;6.10;;
43696;SDS011;29301;47.620;19.560;2022-08-26T02:30:25;16.25;;;6.95;;
43696;SDS011;29301;47.620;19.560;2022-08-26T02:32:54;10.65;;;5.80;;
43696;SDS011;29301;47.620;19.560;2022-08-26T02:35:22;12.43;;;6.10;;
43696;SDS011;29301;47.620;19.560;2022-08-26T02:37:48;9.65;;;5.88;;
43696;SDS011;29301;47.620;19.560;2022-08-26T02:40:15;10.73;;;6.00;;
43696;SDS011;29301;47.620;19.560;2022-08-26T02:42:42;14.60;;;5.82;;
43696;SDS011;29301;47.620;19.560;2022-08-26T02:45:08;13.93;;;6.13;;
43696;SDS011;29301;47.620;19.560;2022-08-26T02:47:34;10.07;;;5.60;;
43696;SDS011;29301;47.620;19.560;2022-08-26T02:50:01;13.20;;;5.88;;
43696;SDS011;29301;47.620;19.560;2022-08-26T02:52:28;14.38;;;5.85;;
43696;SDS011;29301;47.620;19.560;2022-08-26T02:54:53;11.60;;;5.13;;
43696;SDS011;29301;47.620;19.560;2022-08-26T02:57:19;18.15;;;6.05;;
43696;SDS011;29301;47.620;19.560;2022-08-26T02:59:45;12.40;;;5.60;;
43696;SDS011;29301;47.620;19.560;2022-08-26T03:02:10;14.90;;;5.68;;
43696;SDS011;29301;47.620;19.560;2022-08-26T03:04:37;16.55;;;6.10;;
43696;SDS011;29301;47.620;19.560;2022-08-26T03:07:03;12.52;;;5.40;;
43696;SDS011;29301;47.620;19.560;2022-08-26T03:11:55;13.50;;;5.82;;
43696;SDS011;29301;47.620;19.560;2022-08-26T03:14:21;11.52;;;4.95;;
43696;SDS011;29301;47.620;19.560;2022-08-26T03:16:47;18.73;;;5.22;;
43696;SDS011;29301;47.620;19.560;2022-08-26T03:19:16;10.90;;;5.28;;
43696;SDS011;29301;47.620;19.560;2022-08-26T03:21:42;15.73;;;7.03;;
43696;SDS011;29301;47.620;19.560;2022-08-26T03:24:11;16.73;;;6.65;;
43696;SDS011;29301;47.620;19.560;2022-08-26T03:26:37;15.35;;;6.15;;
43696;SDS011;29301;47.620;19.560;2022-08-26T03:29:03;12.40;;;6.30;;
43696;SDS011;29301;47.620;19.560;2022-08-26T03:31:48;12.43;;;5.63;;
43696;SDS011;29301;47.620;19.560;2022-08-26T03:34:14;14.05;;;5.53;;
43696;SDS011;29301;47.620;19.560;2022-08-26T03:36:42;16.83;;;6.18;;
43696;SDS011;29301;47.620;19.560;2022-08-26T03:39:09;14.95;;;5.90;;
43696;SDS011;29301;47.620;19.560;2022-08-26T03:41:35;15.75;;;6.38;;
43696;SDS011;29301;47.620;19.560;2022-08-26T03:44:02;17.17;;;6.13;;
43696;SDS011;29301;47.620;19.560;2022-08-26T03:49:27;13.00;;;5.93;;
43696;SDS011;29301;47.620;19.560;2022-08-26T03:51:59;14.00;;;5.63;;
43696;SDS011;29301;47.620;19.560;2022-08-26T03:54:26;12.27;;;6.07;;
43696;SDS011;29301;47.620;19.560;2022-08-26T03:56:52;13.18;;;6.80;;
43696;SDS011;29301;47.620;19.560;2022-08-26T03:59:18;12.43;;;6.05;;
43696;SDS011;29301;47.620;19.560;2022-08-26T04:01:43;14.20;;;6.30;;
43696;SDS011;29301;47.620;19.560;2022-08-26T04:04:09;14.98;;;6.07;;
43696;SDS011;29301;47.620;19.560;2022-08-26T04:06:39;17.77;;;6.03;;
43696;SDS011;29301;47.620;19.560;2022-08-26T04:09:12;13.70;;;6.22;;
43696;SDS011;29301;47.620;19.560;2022-08-26T04:11:39;13.40;;;6.15;;
43696;SDS011;29301;47.620;19.560;2022-08-26T04:14:09;15.75;;;6.47;;
43696;SDS011;29301;47.620;19.560;2022-08-26T04:16:38;14.73;;;5.30;;
43696;SDS011;29301;47.620;19.560;2022-08-26T04:19:05;13.55;;;6.13;;
43696;SDS011;29301;47.620;19.560;2022-08-26T04:21:31;13.80;;;6.78;;
43696;SDS011;29301;47.620;19.560;2022-08-26T04:23:57;15.80;;;7.47;;
43696;SDS011;29301;47.620;19.560;2022-08-26T04:26:23;12.77;;;5.93;;
43696;SDS011;29301;47.620;19.560;2022-08-26T04:28:50;23.23;;;6.68;;
43696;SDS011;29301;47.620;19.560;2022-08-26T04:31:17;15.85;;;5.55;;
43696;SDS011;29301;47.620;19.560;2022-08-26T04:33:45;14.00;;;6.05;;
43696;SDS011;29301;47.620;19.560;2022-08-26T04:36:13;18.92;;;6.43;;
43696;SDS011;29301;47.620;19.560;2022-08-26T04:38:39;11.82;;;5.68;;
43696;SDS011;29301;47.620;19.560;2022-08-26T04:41:08;14.65;;;5.78;;
43696;SDS011;29301;47.620;19.560;2022-08-26T04:43:35;17.08;;;6.68;;
43696;SDS011;29301;47.620;19.560;2022-08-26T04:46:02;20.42;;;6.10;;
43696;SDS011;29301;47.620;19.560;2022-08-26T04:50:54;11.80;;;5.97;;
43696;SDS011;29301;47.620;19.560;2022-08-26T04:53:20;17.27;;;7.05;;
43696;SDS011;29301;47.620;19.560;2022-08-26T04:55:47;20.80;;;6.60;;
43696;SDS011;29301;47.620;19.560;2022-08-26T04:58:17;16.27;;;6.03;;
43696;SDS011;29301;47.620;19.560;2022-08-26T05:00:44;12.23;;;5.53;;
43696;SDS011;29301;47.620;19.560;2022-08-26T05:03:15;12.38;;;5.80;;
43696;SDS011;29301;47.620;19.560;2022-08-26T05:05:42;16.48;;;6.00;;
43696;SDS011;29301;47.620;19.560;2022-08-26T05:08:10;17.48;;;6.65;;
43696;SDS011;29301;47.620;19.560;2022-08-26T05:10:38;15.93;;;6.88;;
43696;SDS011;29301;47.620;19.560;2022-08-26T05:13:09;15.57;;;7.15;;
43696;SDS011;29301;47.620;19.560;2022-08-26T05:15:35;16.05;;;6.82;;
43696;SDS011;29301;47.620;19.560;2022-08-26T05:18:02;14.77;;;6.00;;
43696;SDS011;29301;47.620;19.560;2022-08-26T05:22:54;18.83;;;6.50;;
43696;SDS011;29301;47.620;19.560;2022-08-26T05:25:20;16.52;;;6.65;;
43696;SDS011;29301;47.620;19.560;2022-08-26T05:27:45;14.77;;;7.47;;
43696;SDS011;29301;47.620;19.560;2022-08-26T05:30:11;16.95;;;7.82;;
43696;SDS011;29301;47.620;19.560;2022-08-26T05:32:37;17.23;;;7.85;;
43696;SDS011;29301;47.620;19.560;2022-08-26T05:35:03;16.58;;;7.45;;
43696;SDS011;29301;47.620;19.560;2022-08-26T05:39:54;15.80;;;7.88;;
43696;SDS011;29301;47.620;19.560;2022-08-26T05:42:20;18.15;;;7.78;;
43696;SDS011;29301;47.620;19.560;2022-08-26T05:44:50;20.38;;;7.82;;
43696;SDS011;29301;47.620;19.560;2022-08-26T05:47:16;17.50;;;8.02;;
43696;SDS011;29301;47.620;19.560;2022-08-26T05:49:42;12.98;;;7.60;;
43696;SDS011;29301;47.620;19.560;2022-08-26T05:52:08;20.58;;;8.40;;
43696;SDS011;29301;47.620;19.560;2022-08-26T05:54:33;16.50;;;7.20;;
43696;SDS011;29301;47.620;19.560;2022-08-26T05:56:59;18.20;;;6.85;;
43696;SDS011;29301;47.620;19.560;2022-08-26T05:59:25;17.38;;;7.70;;
43696;SDS011;29301;47.620;19.560;2022-08-26T06:01:51;22.80;;;8.82;;
43696;SDS011;29301;47.620;19.560;2022-08-26T06:04:18;17.67;;;8.05;;
43696;SDS011;29301;47.620;19.560;2022-08-26T06:06:44;17.38;;;7.72;;
43696;SDS011;29301;47.620;19.560;2022-08-26T06:09:10;18.83;;;8.57;;
43696;SDS011;29301;47.620;19.560;2022-08-26T06:11:35;20.42;;;9.80;;
43696;SDS011;29301;47.620;19.560;2022-08-26T06:14:03;21.70;;;10.38;;
43696;SDS011;29301;47.620;19.560;2022-08-26T06:16:32;23.17;;;10.93;;
43696;SDS011;29301;47.620;19.560;2022-08-26T06:19:03;24.55;;;10.90;;
43696;SDS011;29301;47.620;19.560;2022-08-26T06:23:56;19.67;;;10.90;;
43696;SDS011;29301;47.620;19.560;2022-08-26T06:26:45;18.88;;;9.38;;
43696;SDS011;29301;47.620;19.560;2022-08-26T06:29:13;19.38;;;9.25;;
43696;SDS011;29301;47.620;19.560;2022-08-26T06:31:38;18.02;;;8.20;;
43696;SDS011;29301;47.620;19.560;2022-08-26T06:34:04;17.33;;;7.22;;
43696;SDS011;29301;47.620;19.560;2022-08-26T06:38:58;21.70;;;7.20;;
43696;SDS011;29301;47.620;19.560;2022-08-26T06:41:25;22.58;;;7.55;;
43696;SDS011;29301;47.620;19.560;2022-08-26T06:43:51;16.60;;;7.18;;
43696;SDS011;29301;47.620;19.560;2022-08-26T06:46:19;17.98;;;7.50;;
43696;SDS011;29301;47.620;19.560;2022-08-26T06:48:46;18.48;;;6.15;;
43696;SDS011;29301;47.620;19.560;2022-08-26T06:53:38;22.42;;;6.03;;
43696;SDS011;29301;47.620;19.560;2022-08-26T06:56:07;19.25;;;6.88;;
43696;SDS011;29301;47.620;19.560;2022-08-26T06:58:34;20.73;;;6.00;;
43696;SDS011;29301;47.620;19.560;2022-08-26T07:01:02;10.35;;;4.90;;
43696;SDS011;29301;47.620;19.560;2022-08-26T07:03:28;16.60;;;6.18;;
43696;SDS011;29301;47.620;19.560;2022-08-26T07:05:59;17.05;;;5.28;;
43696;SDS011;29301;47.620;19.560;2022-08-26T07:08:26;17.10;;;5.38;;
43696;SDS011;29301;47.620;19.560;2022-08-26T07:10:52;11.93;;;4.72;;
43696;SDS011;29301;47.620;19.560;2022-08-26T07:13:17;14.38;;;5.25;;
43696;SDS011;29301;47.620;19.560;2022-08-26T07:15:43;19.05;;;5.47;;
43696;SDS011;29301;47.620;19.560;2022-08-26T07:18:09;15.55;;;5.80;;
43696;SDS011;29301;47.620;19.560;2022-08-26T07:20:35;15.77;;;4.97;;
43696;SDS011;29301;47.620;19.560;2022-08-26T07:23:08;13.93;;;4.68;;
43696;SDS011;29301;47.620;19.560;2022-08-26T07:25:39;20.10;;;5.18;;
43696;SDS011;29301;47.620;19.560;2022-08-26T07:28:06;17.58;;;4.95;;
43696;SDS011;29301;47.620;19.560;2022-08-26T07:30:32;9.95;;;4.55;;
43696;SDS011;29301;47.620;19.560;2022-08-26T07:33:03;21.70;;;5.53;;
43696;SDS011;29301;47.620;19.560;2022-08-26T07:37:54;14.68;;;4.75;;
43696;SDS011;29301;47.620;19.560;2022-08-26T07:40:19;19.40;;;4.85;;
43696;SDS011;29301;47.620;19.560;2022-08-26T07:42:46;13.63;;;4.78;;
43696;SDS011;29301;47.620;19.560;2022-08-26T07:45:12;14.20;;;4.13;;
43696;SDS011;29301;47.620;19.560;2022-08-26T07:47:37;16.15;;;5.15;;
43696;SDS011;29301;47.620;19.560;2022-08-26T07:50:03;14.82;;;4.47;;
43696;SDS011;29301;47.620;19.560;2022-08-26T07:54:55;8.20;;;3.47;;
43696;SDS011;29301;47.620;19.560;2022-08-26T07:57:23;12.73;;;3.85;;
43696;SDS011;29301;47.620;19.560;2022-08-26T07:59:50;17.63;;;4.32;;
43696;SDS011;29301;47.620;19.560;2022-08-26T08:02:16;12.25;;;3.88;;
43696;SDS011;29301;47.620;19.560;2022-08-26T08:04:42;13.45;;;3.88;;
43696;SDS011;29301;47.620;19.560;2022-08-26T08:07:08;11.25;;;3.65;;
43696;SDS011;29301;47.620;19.560;2022-08-26T08:09:34;11.18;;;3.33;;
43696;SDS011;29301;47.620;19.560;2022-08-26T08:11:59;13.50;;;4.22;;
43696;SDS011;29301;47.620;19.560;2022-08-26T08:14:25;10.38;;;3.58;;
43696;SDS011;29301;47.620;19.560;2022-08-26T08:16:51;11.40;;;3.42;;
43696;SDS011;29301;47.620;19.560;2022-08-26T08:19:17;10.80;;;3.67;;
43696;SDS011;29301;47.620;19.560;2022-08-26T08:21:43;12.95;;;3.28;;
43696;SDS011;29301;47.620;19.560;2022-08-26T08:24:09;10.70;;;3.50;;
43696;SDS011;29301;47.620;19.560;2022-08-26T08:26:35;12.10;;;3.13;;
43696;SDS011;29301;47.620;19.560;2022-08-26T08:29:01;10.98;;;3.20;;
43696;SDS011;29301;47.620;19.560;2022-08-26T08:31:28;11.27;;;3.45;;
43696;SDS011;29301;47.620;19.560;2022-08-26T08:33:54;14.60;;;3.03;;
43696;SDS011;29301;47.620;19.560;2022-08-26T08:36:20;15.05;;;3.78;;
43696;SDS011;29301;47.620;19.560;2022-08-26T08:38:46;11.23;;;3.97;;
43696;SDS011;29301;47.620;19.560;2022-08-26T08:43:47;11.07;;;2.97;;
43696;SDS011;29301;47.620;19.560;2022-08-26T08:46:15;13.10;;;3.45;;
43696;SDS011;29301;47.620;19.560;2022-08-26T08:48:45;7.90;;;3.13;;
43696;SDS011;29301;47.620;19.560;2022-08-26T08:53:54;13.02;;;3.55;;
43696;SDS011;29301;47.620;19.560;2022-08-26T09:09:58;7.47;;;2.92;;
43696;SDS011;29301;47.620;19.560;2022-08-26T09:12:39;14.70;;;3.33;;
43696;SDS011;29301;47.620;19.560;2022-08-26T09:15:15;13.05;;;3.22;;
43696;SDS011;29301;47.620;19.560;2022-08-26T09:20:38;10.70;;;3.17;;
43696;SDS011;29301;47.620;19.560;2022-08-26T09:23:20;7.53;;;3.03;;
43696;SDS011;29301;47.620;19.560;2022-08-26T09:25:50;15.10;;;2.97;;
43696;SDS011;29301;47.620;19.560;2022-08-26T09:28:24;8.73;;;2.90;;
43696;SDS011;29301;47.620;19.560;2022-08-26T09:31:02;10.25;;;3.03;;
43696;SDS011;29301;47.620;19.560;2022-08-26T09:33:45;10.85;;;3.50;;
43696;SDS011;29301;47.620;19.560;2022-08-26T09:38:54;8.75;;;2.92;;
43696;SDS011;29301;47.620;19.560;2022-08-26T09:41:21;8.60;;;2.95;;
43696;SDS011;29301;47.620;19.560;2022-08-26T09:46:54;9.93;;;2.70;;
43696;SDS011;29301;47.620;19.560;2022-08-26T09:54:33;12.77;;;3.67;;
43696;SDS011;29301;47.620;19.560;2022-08-26T09:59:54;19.60;;;3.88;;
43696;SDS011;29301;47.620;19.560;2022-08-26T10:02:23;14.45;;;3.38;;
43696;SDS011;29301;47.620;19.560;2022-08-26T10:04:54;12.20;;;2.97;;
43696;SDS011;29301;47.620;19.560;2022-08-26T10:09:54;10.32;;;2.72;;
43696;SDS011;29301;47.620;19.560;2022-08-26T10:12:19;12.65;;;3.20;;
43696;SDS011;29301;47.620;19.560;2022-08-26T10:14:47;14.40;;;2.97;;
43696;SDS011;29301;47.620;19.560;2022-08-26T10:17:22;16.37;;;3.53;;
43696;SDS011;29301;47.620;19.560;2022-08-26T10:20:19;13.20;;;3.25;;
43696;SDS011;29301;47.620;19.560;2022-08-26T10:27:49;10.98;;;3.03;;
43696;SDS011;29301;47.620;19.560;2022-08-26T10:30:44;15.63;;;3.03;;
43696;SDS011;29301;47.620;19.560;2022-08-26T10:33:14;15.85;;;2.92;;
43696;SDS011;29301;47.620;19.560;2022-08-26T10:35:50;11.73;;;3.30;;
43696;SDS011;29301;47.620;19.560;2022-08-26T10:38:27;12.00;;;3.25;;
43696;SDS011;29301;47.620;19.560;2022-08-26T10:43:24;14.52;;;3.35;;
43696;SDS011;29301;47.620;19.560;2022-08-26T10:46:02;12.60;;;2.83;;
43696;SDS011;29301;47.620;19.560;2022-08-26T10:48:44;12.90;;;2.85;;
43696;SDS011;29301;47.620;19.560;2022-08-26T10:51:22;12.07;;;2.92;;
43696;SDS011;29301;47.620;19.560;2022-08-26T10:54:04;23.77;;;3.45;;
43696;SDS011;29301;47.620;19.560;2022-08-26T10:56:43;12.70;;;2.67;;
43696;SDS011;29301;47.620;19.560;2022-08-26T11:09:53;14.45;;;3.22;;
43696;SDS011;29301;47.620;19.560;2022-08-26T11:14:57;17.80;;;3.10;;
43696;SDS011;29301;47.620;19.560;2022-08-26T11:19:59;18.67;;;2.95;;
43696;SDS011;29301;47.620;19.560;2022-08-26T11:22:27;10.27;;;3.33;;
43696;SDS011;29301;47.620;19.560;2022-08-26T11:34:58;16.55;;;3.63;;
43696;SDS011;29301;47.620;19.560;2022-08-26T11:39:55;24.25;;;4.18;;
43696;SDS011;29301;47.620;19.560;2022-08-26T11:42:27;11.73;;;3.90;;
43696;SDS011;29301;47.620;19.560;2022-08-26T11:44:53;10.40;;;3.60;;
43696;SDS011;29301;47.620;19.560;2022-08-26T11:47:26;13.00;;;3.92;;
43696;SDS011;29301;47.620;19.560;2022-08-26T11:50:08;15.75;;;3.90;;
43696;SDS011;29301;47.620;19.560;2022-08-26T11:52:39;11.32;;;3.65;;
43696;SDS011;29301;47.620;19.560;2022-08-26T11:55:09;13.00;;;3.35;;
43696;SDS011;29301;47.620;19.560;2022-08-26T11:57:45;13.40;;;2.90;;
43696;SDS011;29301;47.620;19.560;2022-08-26T12:00:19;15.35;;;3.13;;
43696;SDS011;29301;47.620;19.560;2022-08-26T12:02:47;26.35;;;4.57;;
43696;SDS011;29301;47.620;19.560;2022-08-26T12:05:19;16.05;;;3.53;;
43696;SDS011;29301;47.620;19.560;2022-08-26T12:07:53;9.40;;;2.53;;
43696;SDS011;29301;47.620;19.560;2022-08-26T12:10:28;33.45;;;4.80;;
43696;SDS011;29301;47.620;19.560;2022-08-26T12:12:55;16.02;;;3.22;;
43696;SDS011;29301;47.620;19.560;2022-08-26T12:15:22;14.18;;;3.00;;
43696;SDS011;29301;47.620;19.560;2022-08-26T12:17:49;16.90;;;3.38;;
43696;SDS011;29301;47.620;19.560;2022-08-26T12:22:53;19.05;;;3.30;;
43696;SDS011;29301;47.620;19.560;2022-08-26T12:25:21;16.10;;;3.50;;
43696;SDS011;29301;47.620;19.560;2022-08-26T12:27:48;18.08;;;3.10;;
43696;SDS011;29301;47.620;19.560;2022-08-26T12:30:16;11.48;;;3.05;;
43696;SDS011;29301;47.620;19.560;2022-08-26T12:32:45;10.93;;;2.75;;
43696;SDS011;29301;47.620;19.560;2022-08-26T12:35:14;15.82;;;3.10;;
43696;SDS011;29301;47.620;19.560;2022-08-26T12:37:42;13.05;;;3.13;;
43696;SDS011;29301;47.620;19.560;2022-08-26T12:40:25;12.43;;;3.10;;
43696;SDS011;29301;47.620;19.560;2022-08-26T12:42:53;11.48;;;2.72;;
43696;SDS011;29301;47.620;19.560;2022-08-26T12:50:59;19.42;;;3.30;;
43696;SDS011;29301;47.620;19.560;2022-08-26T12:53:26;15.30;;;3.35;;
43696;SDS011;29301;47.620;19.560;2022-08-26T12:55:54;10.32;;;3.42;;
43696;SDS011;29301;47.620;19.560;2022-08-26T12:58:24;15.73;;;3.38;;
43696;SDS011;29301;47.620;19.560;2022-08-26T13:00:58;12.82;;;3.10;;
43696;SDS011;29301;47.620;19.560;2022-08-26T13:03:46;13.30;;;2.90;;
43696;SDS011;29301;47.620;19.560;2022-08-26T13:08:43;13.63;;;3.28;;
43696;SDS011;29301;47.620;19.560;2022-08-26T13:11:17;11.70;;;3.00;;
43696;SDS011;29301;47.620;19.560;2022-08-26T13:13:50;15.38;;;3.25;;
43696;SDS011;29301;47.620;19.560;2022-08-26T13:16:19;17.10;;;3.55;;
43696;SDS011;29301;47.620;19.560;2022-08-26T13:18:46;14.82;;;3.08;;
43696;SDS011;29301;47.620;19.560;2022-08-26T13:21:17;14.27;;;3.22;;
43696;SDS011;29301;47.620;19.560;2022-08-26T13:23:46;15.38;;;3.38;;
43696;SDS011;29301;47.620;19.560;2022-08-26T13:26:12;14.45;;;2.75;;
43696;SDS011;29301;47.620;19.560;2022-08-26T13:28:38;13.65;;;3.17;;
43696;SDS011;29301;47.620;19.560;2022-08-26T13:31:06;13.95;;;3.42;;
43696;SDS011;29301;47.620;19.560;2022-08-26T13:33:32;13.50;;;2.75;;
43696;SDS011;29301;47.620;19.560;2022-08-26T13:35:58;16.95;;;2.80;;
43696;SDS011;29301;47.620;19.560;2022-08-26T13:38:24;10.52;;;3.00;;
43696;SDS011;29301;47.620;19.560;2022-08-26T13:40:50;10.40;;;2.55;;
43696;SDS011;29301;47.620;19.560;2022-08-26T13:43:15;11.05;;;2.80;;
43696;SDS011;29301;47.620;19.560;2022-08-26T13:45:41;17.30;;;2.97;;
43696;SDS011;29301;47.620;19.560;2022-08-26T13:48:09;14.45;;;3.10;;
43696;SDS011;29301;47.620;19.560;2022-08-26T13:50:35;9.38;;;2.47;;
43696;SDS011;29301;47.620;19.560;2022-08-26T13:53:01;10.93;;;2.97;;
43696;SDS011;29301;47.620;19.560;2022-08-26T13:55:27;8.88;;;3.03;;
43696;SDS011;29301;47.620;19.560;2022-08-26T13:57:53;14.18;;;2.83;;
43696;SDS011;29301;47.620;19.560;2022-08-26T14:00:20;14.20;;;3.30;;
43696;SDS011;29301;47.620;19.560;2022-08-26T14:02:46;11.68;;;3.13;;
43696;SDS011;29301;47.620;19.560;2022-08-26T14:05:11;11.73;;;2.42;;
43696;SDS011;29301;47.620;19.560;2022-08-26T14:07:37;15.02;;;3.17;;
43696;SDS011;29301;47.620;19.560;2022-08-26T14:10:03;24.43;;;3.83;;
43696;SDS011;29301;47.620;19.560;2022-08-26T14:14:55;14.35;;;3.15;;
43696;SDS011;29301;47.620;19.560;2022-08-26T14:17:21;8.82;;;2.60;;
43696;SDS011;29301;47.620;19.560;2022-08-26T14:19:48;15.60;;;3.35;;
43696;SDS011;29301;47.620;19.560;2022-08-26T14:22:15;11.75;;;2.95;;
43696;SDS011;29301;47.620;19.560;2022-08-26T14:24:43;14.18;;;3.17;;
43696;SDS011;29301;47.620;19.560;2022-08-26T14:27:09;14.00;;;3.28;;
43696;SDS011;29301;47.620;19.560;2022-08-26T14:29:36;16.35;;;3.53;;
43696;SDS011;29301;47.620;19.560;2022-08-26T14:32:04;12.80;;;3.53;;
43696;SDS011;29301;47.620;19.560;2022-08-26T14:34:39;13.30;;;3.00;;
43696;SDS011;29301;47.620;19.560;2022-08-26T14:37:06;20.10;;;3.38;;
43696;SDS011;29301;47.620;19.560;2022-08-26T14:39:32;12.63;;;2.78;;
43696;SDS011;29301;47.620;19.560;2022-08-26T14:41:58;11.13;;;2.85;;
43696;SDS011;29301;47.620;19.560;2022-08-26T14:44:26;20.13;;;3.00;;
43696;SDS011;29301;47.620;19.560;2022-08-26T14:46:59;10.80;;;3.20;;
43696;SDS011;29301;47.620;19.560;2022-08-26T14:49:26;11.27;;;2.88;;
43696;SDS011;29301;47.620;19.560;2022-08-26T14:51:53;12.40;;;3.47;;
43696;SDS011;29301;47.620;19.560;2022-08-26T14:54:19;14.00;;;3.85;;
43696;SDS011;29301;47.620;19.560;2022-08-26T14:56:46;19.17;;;3.40;;
43696;SDS011;29301;47.620;19.560;2022-08-26T14:59:19;15.15;;;3.63;;
43696;SDS011;29301;47.620;19.560;2022-08-26T15:01:47;13.25;;;3.15;;
43696;SDS011;29301;47.620;19.560;2022-08-26T15:04:13;10.63;;;3.13;;
43696;SDS011;29301;47.620;19.560;2022-08-26T15:06:39;11.30;;;3.08;;
43696;SDS011;29301;47.620;19.560;2022-08-26T15:09:05;12.90;;;3.47;;
43696;SDS011;29301;47.620;19.560;2022-08-26T15:11:32;10.50;;;3.00;;
43696;SDS011;29301;47.620;19.560;2022-08-26T15:13:57;9.15;;;2.90;;
43696;SDS011;29301;47.620;19.560;2022-08-26T15:16:24;13.38;;;3.13;;
43696;SDS011;29301;47.620;19.560;2022-08-26T15:18:51;9.75;;;2.80;;
43696;SDS011;29301;47.620;19.560;2022-08-26T15:21:17;14.27;;;3.55;;
43696;SDS011;29301;47.620;19.560;2022-08-26T15:23:44;13.15;;;3.25;;
43696;SDS011;29301;47.620;19.560;2022-08-26T15:26:10;11.10;;;3.17;;
43696;SDS011;29301;47.620;19.560;2022-08-26T15:28:36;10.65;;;3.17;;
43696;SDS011;29301;47.620;19.560;2022-08-26T15:31:03;10.35;;;3.08;;
43696;SDS011;29301;47.620;19.560;2022-08-26T15:35:59;13.50;;;3.22;;
43696;SDS011;29301;47.620;19.560;2022-08-26T15:38:29;13.90;;;3.20;;
43696;SDS011;29301;47.620;19.560;2022-08-26T15:40:54;10.23;;;2.90;;
43696;SDS011;29301;47.620;19.560;2022-08-26T15:43:20;14.52;;;3.45;;
43696;SDS011;29301;47.620;19.560;2022-08-26T15:45:46;17.30;;;3.95;;
43696;SDS011;29301;47.620;19.560;2022-08-26T15:48:12;17.83;;;4.63;;
43696;SDS011;29301;47.620;19.560;2022-08-26T15:53:43;17.48;;;4.00;;
43696;SDS011;29301;47.620;19.560;2022-08-26T15:56:09;13.73;;;3.42;;
43696;SDS011;29301;47.620;19.560;2022-08-26T15:58:35;8.90;;;2.90;;
43696;SDS011;29301;47.620;19.560;2022-08-26T16:01:01;9.85;;;3.33;;
43696;SDS011;29301;47.620;19.560;2022-08-26T16:03:26;19.73;;;3.65;;
43696;SDS011;29301;47.620;19.560;2022-08-26T16:05:52;12.68;;;3.20;;
43696;SDS011;29301;47.620;19.560;2022-08-26T16:08:18;16.85;;;3.40;;
43696;SDS011;29301;47.620;19.560;2022-08-26T16:10:46;14.85;;;3.05;;
43696;SDS011;29301;47.620;19.560;2022-08-26T16:13:12;13.40;;;3.45;;
43696;SDS011;29301;47.620;19.560;2022-08-26T16:15:38;21.13;;;4.65;;
43696;SDS011;29301;47.620;19.560;2022-08-26T16:18:05;19.17;;;3.53;;
43696;SDS011;29301;47.620;19.560;2022-08-26T16:20:33;13.52;;;3.00;;
43696;SDS011;29301;47.620;19.560;2022-08-26T16:23:01;15.57;;;3.70;;
43696;SDS011;29301;47.620;19.560;2022-08-26T16:25:28;13.23;;;3.75;;
43696;SDS011;29301;47.620;19.560;2022-08-26T16:27:53;18.65;;;3.25;;
43696;SDS011;29301;47.620;19.560;2022-08-26T16:30:20;13.15;;;3.60;;